sensor_id;sensor_type;location;lat;lon;timestamp;pressure;altitude;pressure_sealevel;temperature;humidity
15558;BME280;7880;50.110;9.372;2023-02-14T00:04:43;0.43358681539539246;;;0.5;100.0
15558;BME280;7880;50.110;9.372;2023-02-14T00:09:44;0.6302141038759146;;;0.687;100.0
15558;BME280;7880;50.110;9.372;2023-02-14T00:15:21;0.8318835775426123;;;0.937;100.0
15558;BME280;7880;50.110;9.372;2023-02-14T00:20:10;1.0436370260606054;;;1.187;100.0
15558;BME280;7880;50.110;9.372;2023-02-14T00:25:09;1.1343886611575726;;;1.312;100.0
15558;BME280;7880;50.110;9.372;2023-02-14T00:30:12;1.2150568604061847;;;1.375;100.0
15558;BME280;7880;50.110;9.372;2023-02-14T00:35:19;1.285641595866764;;;1.5;100.0
15558;BME280;7880;50.110;9.372;2023-02-14T00:40:20;1.2957251341606024;;;1.5;100.0
15558;BME280;7880;50.110;9.372;2023-02-14T00:45:28;1.3411010708892719;;;1.625;100.0
15558;BME280;7880;50.110;9.372;2023-02-14T00:50:29;1.371351708471775;;;1.625;100.0
15558;BME280;7880;50.110;9.372;2023-02-14T00:55:35;1.4318530150689184;;;1.625;100.0
15558;BME280;7880;50.110;9.372;2023-02-14T01:00:47;1.4621036840835586;;;1.687;100.0
15558;BME280;7880;50.110;9.372;2023-02-14T01:05:57;1.4671454632712995;;;1.687;100.0
15558;BME280;7880;50.110;9.372;2023-02-14T01:10:50;1.4973961445095483;;;1.75;100.0
15558;BME280;7880;50.110;9.372;2023-02-14T01:16:08;1.5226050535449758;;;1.75;100.0
15558;BME280;7880;50.110;9.372;2023-02-14T01:21:11;1.557897538418183;;;1.75;100.0
15558;BME280;7880;50.110;9.372;2023-02-14T01:26:03;1.537730402458692;;;1.75;100.0
15558;BME280;7880;50.110;9.372;2023-02-14T01:31:10;1.5478139698563609;;;1.75;100.0
15558;BME280;7880;50.110;9.372;2023-02-14T01:36:17;1.4923543635755778;;;1.687;100.0
15558;BME280;7880;50.110;9.372;2023-02-14T01:41:21;1.4822708025807514;;;1.625;100.0
15558;BME280;7880;50.110;9.372;2023-02-14T01:46:26;1.5024379257345573;;;1.687;100.0
15558;BME280;7880;50.110;9.372;2023-02-14T01:51:24;1.4772290225198959;;;1.625;100.0
15558;BME280;7880;50.110;9.372;2023-02-14T01:56:35;1.4066441322269383;;;1.5;100.0
15558;BME280;7880;50.110;9.372;2023-02-14T02:01:34;1.3360592989774887;;;1.437;100.0
15558;BME280;7880;50.110;9.372;2023-02-14T02:06:40;1.2705162906087935;;;1.375;100.0
15558;BME280;7880;50.110;9.372;2023-02-14T02:11:42;1.3612681614467874;;;1.437;100.0
15558;BME280;7880;50.110;9.372;2023-02-14T02:16:58;1.3461428430920932;;;1.437;100.0
15558;BME280;7880;50.110;9.372;2023-02-14T02:22:07;1.2150568604061847;;;1.312;100.0
15558;BME280;7880;50.110;9.372;2023-02-14T02:27:20;1.2755580587370787;;;1.312;100.0
15558;BME280;7880;50.110;9.372;2023-02-14T02:32:17;1.174722751468653;;;1.25;100.0
15558;BME280;7880;50.110;9.372;2023-02-14T02:37:22;1.1595974654192105;;;1.25;100.0
15558;BME280;7880;50.110;9.372;2023-02-14T02:42:22;1.1797645140672102;;;1.25;100.0
15558;BME280;7880;50.110;9.372;2023-02-14T02:47:26;1.2503492210060358;;;1.25;100.0
15558;BME280;7880;50.110;9.372;2023-02-14T02:53:31;1.1091798641718924;;;1.187;100.0
15558;BME280;7880;50.110;9.372;2023-02-14T02:58:16;1.048678781092167;;;1.125;100.0
15558;BME280;7880;50.110;9.372;2023-02-14T03:10:21;1.1243051414901857;;;1.125;100.0
15558;BME280;7880;50.110;9.372;2023-02-14T03:15:34;1.0638040479330813;;;1.062;100.0
15558;BME280;7880;50.110;9.372;2023-02-14T03:20:36;1.0940545894729439;;;1.062;100.0
15558;BME280;7880;50.110;9.372;2023-02-14T03:25:41;1.0234700088447426;;;1.062;100.0
15558;BME280;7880;50.110;9.372;2023-02-14T03:30:45;0.9579272350529209;;;1.0;100.0
15558;BME280;7880;50.110;9.372;2023-02-14T03:35:45;0.816758350864984;;;0.875;100.0
15558;BME280;7880;50.110;9.372;2023-02-14T03:40:51;0.862134038755903;;;0.875;100.0
15558;BME280;7880;50.110;9.372;2023-02-14T03:45:52;0.8823010187188629;;;0.875;100.0
15558;BME280;7880;50.110;9.372;2023-02-14T03:50:53;0.862134038755903;;;0.875;100.0
15558;BME280;7880;50.110;9.372;2023-02-14T03:56:02;0.7663409475237131;;;0.875;100.0
15558;BME280;7880;50.110;9.372;2023-02-14T04:01:05;0.8570922944927588;;;0.812;100.0
15558;BME280;7880;50.110;9.372;2023-02-14T04:06:06;0.8823010187188629;;;0.875;100.0
15558;BME280;7880;50.110;9.372;2023-02-14T04:11:11;0.8117166092211846;;;0.812;100.0
15558;BME280;7880;50.110;9.372;2023-02-14T04:16:16;0.6907148970814887;;;0.75;100.0
15558;BME280;7880;50.110;9.372;2023-02-14T04:21:25;0.7159235732862725;;;0.687;100.0
15558;BME280;7880;50.110;9.372;2023-02-14T04:26:24;0.7512157321965788;;;0.75;100.0
15558;BME280;7880;50.110;9.372;2023-02-14T04:31:28;0.7814661654701922;;;0.75;100.0
15558;BME280;7880;50.110;9.372;2023-02-14T04:36:32;0.7512157321965788;;;0.75;100.0
15558;BME280;7880;50.110;9.372;2023-02-14T04:41:43;0.7159235732862725;;;0.75;100.0
15558;BME280;7880;50.110;9.372;2023-02-14T04:46:40;0.7612992087902967;;;0.75;100.0
15558;BME280;7880;50.110;9.372;2023-02-14T04:51:44;0.7461739943362773;;;0.75;100.0
15558;BME280;7880;50.110;9.372;2023-02-14T04:56:48;0.5192960918473546;;;0.625;100.0
15558;BME280;7880;50.110;9.372;2023-02-14T05:01:52;0.5797968082188163;;;0.562;100.0
15558;BME280;7880;50.110;9.372;2023-02-14T05:07:01;0.6251723730005324;;;0.625;100.0
15558;BME280;7880;50.110;9.372;2023-02-14T05:12:06;0.6201306424161885;;;0.625;100.0
15558;BME280;7880;50.110;9.372;2023-02-14T05:17:04;0.6806314286368433;;;0.687;100.0
15558;BME280;7880;50.110;9.372;2023-02-14T05:21:56;0.6503810302878265;;;0.687;100.0
15558;BME280;7880;50.110;9.372;2023-02-14T05:27:00;0.5747550802538172;;;0.625;100.0
15558;BME280;7880;50.110;9.372;2023-02-14T05:32:06;0.6050054524093866;;;0.625;100.0
15558;BME280;7880;50.110;9.372;2023-02-14T05:37:07;0.6201306424161885;;;0.625;100.0
15558;BME280;7880;50.110;9.372;2023-02-14T05:42:10;0.6806314286368433;;;0.687;100.0
15558;BME280;7880;50.110;9.372;2023-02-14T05:47:16;0.5697133525798563;;;0.562;100.0
15558;BME280;7880;50.110;9.372;2023-02-14T05:52:17;0.5243378166109324;;;0.5;100.0
15558;BME280;7880;50.110;9.372;2023-02-14T05:57:24;0.5344212670112028;;;0.562;100.0
15558;BME280;7880;50.110;9.372;2023-02-14T06:02:30;0.741132256767014;;;0.687;100.0
15558;BME280;7880;50.110;9.372;2023-02-14T06:07:33;0.4991291957034264;;;0.562;100.0
15558;BME280;7880;50.110;9.372;2023-02-14T06:12:36;0.48904574937769213;;;0.562;100.0
15558;BME280;7880;50.110;9.372;2023-02-14T06:17:38;0.4083782206813339;;;0.437;100.0
15558;BME280;7880;50.110;9.372;2023-02-14T06:22:41;0.38821135014877656;;;0.437;100.0
15558;BME280;7880;50.110;9.372;2023-02-14T06:27:46;0.6251723730005324;;;0.562;100.0
15558;BME280;7880;50.110;9.372;2023-02-14T06:32:51;1.2049733314255717;;;1.187;100.0
15558;BME280;7880;50.110;9.372;2023-02-14T06:38:05;0.4991291957034264;;;0.687;100.0
15558;BME280;7880;50.110;9.372;2023-02-14T06:43:10;0.3781279166287277;;;0.437;100.0
15558;BME280;7880;50.110;9.372;2023-02-14T06:48:05;0.3579610530810896;;;0.375;100.0
15558;BME280;7880;50.110;9.372;2023-02-14T06:53:08;0.5293795416655485;;;0.5;100.0
15558;BME280;7880;50.110;9.372;2023-02-14T06:58:13;0.5192960918473546;;;0.5;100.0
15558;BME280;7880;50.110;9.372;2023-02-14T07:03:18;0.3529193379217759;;;0.375;100.0
15558;BME280;7880;50.110;9.372;2023-02-14T07:08:22;0.2823353562504053;;;0.312;100.0
15558;BME280;7880;50.110;9.372;2023-02-14T07:13:28;0.25208509585354477;;;0.312;100.0
15558;BME280;7880;50.110;9.372;2023-02-14T07:18:40;0.3529193379217759;;;0.375;100.0
15558;BME280;7880;50.110;9.372;2023-02-14T07:23:38;0.3781279166287277;;;0.375;100.0
15558;BME280;7880;50.110;9.372;2023-02-14T07:28:42;0.2974604903778527;;;0.312;100.0
15558;BME280;7880;50.110;9.372;2023-02-14T07:33:46;0.45879541738540863;;;0.437;100.0
15558;BME280;7880;50.110;9.372;2023-02-14T07:38:56;0.3529193379217759;;;0.375;100.0
15558;BME280;7880;50.110;9.372;2023-02-14T07:43:58;0.3428359084762633;;;0.437;100.0
15558;BME280;7880;50.110;9.372;2023-02-14T07:49:03;0.38821135014877656;;;0.375;100.0
15558;BME280;7880;50.110;9.372;2023-02-14T07:54:07;0.4789623042161111;;;0.437;100.0
15558;BME280;7880;50.110;9.372;2023-02-14T07:59:09;0.4386285352113191;;;0.437;100.0
15558;BME280;7880;50.110;9.372;2023-02-14T08:04:19;0.3428359084762633;;;0.312;100.0
15558;BME280;7880;50.110;9.372;2023-02-14T08:09:56;0.26721022474230266;;;0.25;100.0
15558;BME280;7880;50.110;9.372;2023-02-14T08:16:04;0.4537536964053288;;;0.437;100.0
15558;BME280;7880;50.110;9.372;2023-02-14T08:20:52;0.5596298981050495;;;0.625;100.0
15558;BME280;7880;50.110;9.372;2023-02-14T08:25:52;0.5898802650219295;;;0.625;100.0
15558;BME280;7880;50.110;9.372;2023-02-14T08:30:53;0.6100471821206156;;;0.625;100.0
15558;BME280;7880;50.110;9.372;2023-02-14T08:36:00;0.6100471821206156;;;0.625;100.0
15558;BME280;7880;50.110;9.372;2023-02-14T08:41:05;0.7007983666902874;;;0.687;100.0
15558;BME280;7880;50.110;9.372;2023-02-14T08:46:11;0.5697133525798563;;;0.625;100.0
15558;BME280;7880;50.110;9.372;2023-02-14T08:51:15;0.7612992087902967;;;0.75;100.0
15558;BME280;7880;50.110;9.372;2023-02-14T08:56:22;0.7713826865481679;;;0.875;100.0
15558;BME280;7880;50.110;9.372;2023-02-14T09:01:24;0.8722175281553064;;;0.875;100.0
15558;BME280;7880;50.110;9.372;2023-02-14T09:06:28;0.8117166092211846;;;0.875;100.0
15558;BME280;7880;50.110;9.372;2023-02-14T09:11:34;0.826841835025698;;;0.875;100.0
15558;BME280;7880;50.110;9.372;2023-02-14T09:16:39;0.9579272350529209;;;1.0;100.0
15558;BME280;7880;50.110;9.372;2023-02-14T09:21:42;1.0184282552683726;;;1.0;100.0
15558;BME280;7880;50.110;9.372;2023-02-14T09:26:47;1.07892931739334;;;1.062;100.0
15558;BME280;7880;50.110;9.372;2023-02-14T09:31:51;1.1041381056478712;;;1.125;100.0
15558;BME280;7880;50.110;9.372;2023-02-14T09:36:55;1.0587622920284048;;;1.125;100.0
15558;BME280;7880;50.110;9.372;2023-02-14T09:42:09;1.0335535168705974;;;1.062;100.0
15558;BME280;7880;50.110;9.372;2023-02-14T09:47:12;1.0839710744621698;;;1.187;100.0
15558;BME280;7880;50.110;9.372;2023-02-14T09:52:12;1.230182156059891;;;1.25;100.0
15558;BME280;7880;50.110;9.372;2023-02-14T09:57:21;1.1696809891611337;;;1.187;100.0
15558;BME280;7880;50.110;9.372;2023-02-14T10:02:37;1.3310175273567437;;;1.312;100.0
15558;BME280;7880;50.110;9.372;2023-02-14T10:07:35;1.4419365702429787;;;1.437;100.0
15558;BME280;7880;50.110;9.372;2023-02-14T10:12:31;1.3158922142407392;;;1.312;100.0
15558;BME280;7880;50.110;9.372;2023-02-14T10:17:38;1.3310175273567437;;;1.437;100.0
15558;BME280;7880;50.110;9.372;2023-02-14T10:22:39;1.5326886191964149;;;1.562;100.0
15558;BME280;7880;50.110;9.372;2023-02-14T10:26:10;1.5679811081441586;;;1.625;100.0
15558;BME280;7880;50.110;9.372;2023-02-14T10:31:19;1.5074797072506043;;;1.562;100.0
15558;BME280;7880;50.110;9.372;2023-02-14T10:36:26;1.5629393231356516;;;1.625;100.0
15558;BME280;7880;50.110;9.372;2023-02-14T10:41:27;1.623440762446262;;;1.625;100.0
15558;BME280;7880;50.110;9.372;2023-02-14T10:46:33;1.588148251088569;;;1.562;100.0
15558;BME280;7880;50.110;9.372;2023-02-14T10:51:36;1.6940258279442788;;;1.687;100.0
15558;BME280;7880;50.110;9.372;2023-02-14T10:56:35;1.6284825509472285;;;1.687;100.0
15558;BME280;7880;50.110;9.372;2023-02-14T11:01:39;1.5780646790342872;;;1.625;100.0
15558;BME280;7880;50.110;9.372;2023-02-14T11:06:52;1.9057813666993753;;;1.937;100.0
15558;BME280;7880;50.110;9.372;2023-02-14T11:11:50;1.8604051366040948;;;1.937;100.0
15558;BME280;7880;50.110;9.372;2023-02-14T11:16:53;2.2082901697838677;;;2.25;100.0
15558;BME280;7880;50.110;9.372;2023-02-14T11:21:56;2.12762105318252;;;2.187;100.0
15558;BME280;7880;50.110;9.372;2023-02-14T11:27:01;2.2334992840013;;;2.25;100.0
15558;BME280;7880;50.110;9.372;2023-02-14T11:32:07;2.283917534264037;;;2.312;100.0
15558;BME280;7880;50.110;9.372;2023-02-14T11:37:23;2.2385411077179014;;;2.25;100.0
15558;BME280;7880;50.110;9.372;2023-02-14T11:42:13;2.218373814597726;;;2.25;100.0
15558;BME280;7880;50.110;9.372;2023-02-14T11:47:18;2.3393776431679725;;;2.312;100.0
15558;BME280;7880;50.110;9.372;2023-02-14T11:52:26;2.4654234761896077;;;2.5;100.0
15558;BME280;7880;50.110;9.372;2023-02-14T11:57:28;2.470465313293971;;;2.5;100.0
15558;BME280;7880;50.110;9.372;2023-02-14T12:02:37;2.455339802853996;;;2.5;100.0
15558;BME280;7880;50.110;9.372;2023-02-14T12:07:38;2.4402142950333654;;;2.437;100.0
15558;BME280;7880;50.110;9.372;2023-02-14T12:12:58;2.5864276470209004;;;2.5;100.0
15558;BME280;7880;50.110;9.372;2023-02-14T12:17:45;2.510800020606257;;;2.562;100.0
15558;BME280;7880;50.110;9.372;2023-02-14T12:22:54;2.354503133526305;;;2.437;100.0
15558;BME280;7880;50.110;9.372;2023-02-14T12:27:55;2.636846101010451;;;2.562;100.0
15558;BME280;7880;50.110;9.372;2023-02-14T12:32:56;2.788101637602085;;;2.75;100.0
15558;BME280;7880;50.110;9.372;2023-02-14T12:38:06;2.8385202080069574;;;2.812;100.0
15558;BME280;7880;50.110;9.372;2023-02-14T12:43:31;2.7981853493547533;;;2.875;100.0
15558;BME280;7880;50.110;9.372;2023-02-14T12:48:22;2.8788550852856134;;;2.875;100.0
15558;BME280;7880;50.110;9.372;2023-02-14T12:53:41;2.7931434933329;;;2.812;100.0
15558;BME280;7880;50.110;9.372;2023-02-14T12:58:36;2.818352776352549;;;2.812;100.0
15558;BME280;7880;50.110;9.372;2023-02-14T13:03:44;2.979692359972978;;;2.937;100.0
15558;BME280;7880;50.110;9.372;2023-02-14T13:09:03;2.7679342175892088;;;2.875;100.0
15558;BME280;7880;50.110;9.372;2023-02-14T13:13:53;2.9393574361281933;;;2.937;100.0
15558;BME280;7880;50.110;9.372;2023-02-14T13:18:57;3.0452366509474813;;;3.062;100.0
15558;BME280;7880;50.110;9.372;2023-02-14T13:24:14;2.974650493473746;;;3.0;100.0
15558;BME280;7880;50.110;9.372;2023-02-14T13:29:03;3.1006972432660405;;;3.125;100.0
15558;BME280;7880;50.110;9.372;2023-02-14T13:34:12;3.05027852152125;;;3.062;100.0
15558;BME280;7880;50.110;9.372;2023-02-14T13:39:20;3.05027852152125;;;3.062;100.0
15558;BME280;7880;50.110;9.372;2023-02-14T13:44:41;3.1611997477768456;;;3.125;100.0
15558;BME280;7880;50.110;9.372;2023-02-14T13:49:26;3.0452366509474813;;;3.125;100.0
15558;BME280;7880;50.110;9.372;2023-02-14T13:54:32;2.9998598288802896;;;3.0;100.0
15558;BME280;7880;50.110;9.372;2023-02-14T13:59:35;3.1158228654647244;;;3.062;100.0
15558;BME280;7880;50.110;9.372;2023-02-14T14:04:36;3.040194780664751;;;3.062;100.0
15558;BME280;7880;50.110;9.372;2023-02-14T14:10:42;2.858687644317979;;;2.875;100.0
15558;BME280;7880;50.110;9.372;2023-02-14T14:15:21;2.707431985490257;;;2.687;100.0
15558;BME280;7880;50.110;9.372;2023-02-14T14:20:43;2.707431985490257;;;2.75;100.0
15558;BME280;7880;50.110;9.372;2023-02-14T14:25:32;2.8082690622715747;;;2.812;100.0
15558;BME280;7880;50.110;9.372;2023-02-14T14:30:34;2.8082690622715747;;;2.875;100.0
15558;BME280;7880;50.110;9.372;2023-02-14T14:35:37;2.833478349656798;;;2.75;100.0
15558;BME280;7880;50.110;9.372;2023-02-14T14:40:44;2.657013490755344;;;2.625;100.0
15558;BME280;7880;50.110;9.372;2023-02-14T14:45:51;2.6771808851568495;;;2.687;100.0
15558;BME280;7880;50.110;9.372;2023-02-14T14:50:49;3.3527912885474507;;;3.062;100.0
15558;BME280;7880;50.110;9.372;2023-02-14T14:55:52;2.7931434933329;;;2.75;100.0
15558;BME280;7880;50.110;9.372;2023-02-14T15:00:56;2.646929795300821;;;2.625;100.0
15558;BME280;7880;50.110;9.372;2023-02-14T15:06:12;2.727599391533295;;;2.687;100.0
15558;BME280;7880;50.110;9.372;2023-02-14T15:11:07;2.5360092221351804;;;2.5;100.0
15558;BME280;7880;50.110;9.372;2023-02-14T15:16:09;2.6015531801618637;;;2.562;100.0
15558;BME280;7880;50.110;9.372;2023-02-14T15:21:14;2.2284574605757372;;;2.25;100.0
15558;BME280;7880;50.110;9.372;2023-02-14T15:26:24;2.3141684983915183;;;2.25;100.0
15558;BME280;7880;50.110;9.372;2023-02-14T15:30:28;2.193164704745868;;;2.125;100.0
15558;BME280;7880;50.110;9.372;2023-02-14T15:35:31;2.3242521554289852;;;2.312;100.0
15558;BME280;7880;50.110;9.372;2023-02-14T15:40:34;2.248624756024219;;;2.187;100.0
15558;BME280;7880;50.110;9.372;2023-02-14T15:45:40;2.6015531801618637;;;2.437;100.0
15558;BME280;7880;50.110;9.372;2023-02-14T15:50:43;2.384754122101003;;;2.437;100.0
15558;BME280;7880;50.110;9.372;2023-02-14T15:55:49;2.3444194729963783;;;2.25;100.0
15558;BME280;7880;50.110;9.372;2023-02-14T16:00:47;2.2889593608910217;;;2.25;100.0
15558;BME280;7880;50.110;9.372;2023-02-14T16:05:56;2.193164704745868;;;2.187;100.0
15558;BME280;7880;50.110;9.372;2023-02-14T16:10:59;2.1326628707873168;;;2.125;100.0
15558;BME280;7880;50.110;9.372;2023-02-14T16:16:06;2.0318265739886554;;;2.062;100.0
15558;BME280;7880;50.110;9.372;2023-02-14T16:21:12;1.9511576203687582;;;1.937;100.0
15558;BME280;7880;50.110;9.372;2023-02-14T16:26:12;2.026784762204625;;;1.937;100.0
15558;BME280;7880;50.110;9.372;2023-02-14T16:31:19;1.8200707296433394;;;1.75;100.0
15558;BME280;7880;50.110;9.372;2023-02-14T16:36:22;1.8604051366040948;;;1.812;100.0
15558;BME280;7880;50.110;9.372;2023-02-14T16:41:27;1.961241235496709;;;1.875;100.0
15558;BME280;7880;50.110;9.372;2023-02-14T16:46:32;1.7595691541268024;;;1.687;100.0
15558;BME280;7880;50.110;9.372;2023-02-14T16:51:36;1.6688168694323395;;;1.625;100.0
15558;BME280;7880;50.110;9.372;2023-02-14T16:56:42;1.7091512065439018;;;1.625;100.0
15558;BME280;7880;50.110;9.372;2023-02-14T17:01:44;3.1309484902827536;;;2.562;100.0
15558;BME280;7880;50.110;9.372;2023-02-14T17:06:50;1.7696527471358423;;;1.75;100.0
15558;BME280;7880;50.110;9.372;2023-02-14T17:11:52;1.5326886191964149;;;1.5;100.0
15558;BME280;7880;50.110;9.372;2023-02-14T17:16:58;1.7696527471358423;;;1.625;100.0
15558;BME280;7880;50.110;9.372;2023-02-14T17:22:01;2.0721610787382816;;;1.687;100.0
15558;BME280;7880;50.110;9.372;2023-02-14T17:27:10;1.5679811081441586;;;1.562;100.0
15558;BME280;7880;50.110;9.372;2023-02-14T17:32:09;1.5427721860120074;;;1.5;100.0
15558;BME280;7880;50.110;9.372;2023-02-14T17:37:19;1.351184615585953;;;1.375;100.0
15558;BME280;7880;50.110;9.372;2023-02-14T17:42:31;1.5276468362251763;;;1.5;100.0
15558;BME280;7880;50.110;9.372;2023-02-14T17:47:23;1.5175632711558138;;;1.5;100.0
15558;BME280;7880;50.110;9.372;2023-02-14T17:52:29;1.588148251088569;;;1.562;100.0
15558;BME280;7880;50.110;9.372;2023-02-14T17:57:30;1.3259757560270373;;;1.312;100.0
15558;BME280;7880;50.110;9.372;2023-02-14T18:02:34;1.2251403905509506;;;1.25;100.0
15558;BME280;7880;50.110;9.372;2023-02-14T18:07:37;1.4016023565316573;;;1.312;100.0
15558;BME280;7880;50.110;9.372;2023-02-14T18:13:10;1.3158922142407392;;;1.312;100.0
15558;BME280;7880;50.110;9.372;2023-02-14T18:18:11;1.2654745227715467;;;1.312;100.0
15558;BME280;7880;50.110;9.372;2023-02-14T18:23:16;1.3461428430920932;;;1.312;100.0
15558;BME280;7880;50.110;9.372;2023-02-14T18:28:21;1.1495139428414405;;;1.187;100.0
15558;BME280;7880;50.110;9.372;2023-02-14T18:33:24;1.3259757560270373;;;1.25;100.0
15558;BME280;7880;50.110;9.372;2023-02-14T18:38:32;1.3965605811274144;;;1.25;100.0
15558;BME280;7880;50.110;9.372;2023-02-14T18:43:34;1.1444721819891128;;;1.125;100.0
15558;BME280;7880;50.110;9.372;2023-02-14T18:48:39;1.1545557039848062;;;1.125;100.0
15558;BME280;7880;50.110;9.372;2023-02-14T18:53:45;1.1495139428414405;;;1.062;100.0
15558;BME280;7880;50.110;9.372;2023-02-14T18:58:55;0.9579272350529209;;;0.937;100.0
15558;BME280;7880;50.110;9.372;2023-02-14T19:03:55;0.9780942371347919;;;0.937;100.0
15558;BME280;7880;50.110;9.372;2023-02-14T19:09:07;1.2251403905509506;;;1.125;100.0
15558;BME280;7880;50.110;9.372;2023-02-14T19:14:10;1.0940545894729439;;;1.062;100.0
15558;BME280;7880;50.110;9.372;2023-02-14T19:19:09;1.1696809891611337;;;1.125;100.0
15558;BME280;7880;50.110;9.372;2023-02-14T19:24:17;1.1394304214278237;;;1.125;100.0
15558;BME280;7880;50.110;9.372;2023-02-14T19:29:21;0.9932194917520973;;;1.0;100.0
15558;BME280;7880;50.110;9.372;2023-02-14T19:34:31;0.8671757833100855;;;0.937;100.0
15558;BME280;7880;50.110;9.372;2023-02-14T19:39:31;1.0537205364147666;;;1.0;100.0
15558;BME280;7880;50.110;9.372;2023-02-14T19:44:35;1.0537205364147666;;;1.0;100.0
15558;BME280;7880;50.110;9.372;2023-02-14T19:49:40;0.9075097502209246;;;0.937;100.0
15558;BME280;7880;50.110;9.372;2023-02-14T19:54:45;0.816758350864984;;;0.875;100.0
15558;BME280;7880;50.110;9.372;2023-02-14T19:59:50;0.9428019865474198;;;0.937;100.0
15558;BME280;7880;50.110;9.372;2023-02-14T20:04:58;0.9327184889989439;;;1.0;100.0
15558;BME280;7880;50.110;9.372;2023-02-14T20:10:00;1.0385952713200823;;;1.0;100.0
15558;BME280;7880;50.110;9.372;2023-02-14T20:15:07;0.9780942371347919;;;1.0;100.0
15558;BME280;7880;50.110;9.372;2023-02-14T20:20:13;1.0436370260606054;;;1.062;100.0
15558;BME280;7880;50.110;9.372;2023-02-14T20:25:16;0.9226349926146213;;;0.875;100.0
15558;BME280;7880;50.110;9.372;2023-02-14T20:30:22;0.8923845104465726;;;0.875;100.0
15558;BME280;7880;50.110;9.372;2023-02-14T20:34:42;0.9024680033384357;;;0.875;100.0
15558;BME280;7880;50.110;9.372;2023-02-14T20:39:46;0.8218000927998219;;;0.75;100.0
15558;BME280;7880;50.110;9.372;2023-02-14T20:44:50;0.9327184889989439;;;0.875;100.0
15558;BME280;7880;50.110;9.372;2023-02-14T20:49:56;0.8722175281553064;;;0.937;100.0
15558;BME280;7880;50.110;9.372;2023-02-14T20:55:04;0.6907148970814887;;;0.687;100.0
15558;BME280;7880;50.110;9.372;2023-02-14T21:00:08;0.7915496455563698;;;0.812;100.0
15558;BME280;7880;50.110;9.372;2023-02-14T21:05:10;0.6705479613563512;;;0.75;100.0
15558;BME280;7880;50.110;9.372;2023-02-14T21:10:15;0.6806314286368433;;;0.687;100.0
15558;BME280;7880;50.110;9.372;2023-02-14T21:15:24;0.7360905194887891;;;0.687;100.0
15558;BME280;7880;50.110;9.372;2023-02-14T21:20:23;0.8722175281553064;;;0.812;100.0
15558;BME280;7880;50.110;9.372;2023-02-14T21:25:31;0.8117166092211846;;;0.875;100.0
15558;BME280;7880;50.110;9.372;2023-02-14T21:30:34;0.8823010187188629;;;0.875;100.0
15558;BME280;7880;50.110;9.372;2023-02-14T21:35:48;0.6604644952400122;;;0.75;100.0
15558;BME280;7880;50.110;9.372;2023-02-14T21:40:44;0.7360905194887891;;;0.75;100.0
15558;BME280;7880;50.110;9.372;2023-02-14T21:46:10;0.7360905194887891;;;0.812;100.0
15558;BME280;7880;50.110;9.372;2023-02-14T21:50:56;0.6402975664997939;;;0.687;100.0
15558;BME280;7880;50.110;9.372;2023-02-14T21:56:12;0.7764244258636609;;;0.75;100.0
15558;BME280;7880;50.110;9.372;2023-02-14T22:01:13;0.7007983666902874;;;0.687;100.0
15558;BME280;7880;50.110;9.372;2023-02-14T22:06:12;0.6402975664997939;;;0.687;100.0
15558;BME280;7880;50.110;9.372;2023-02-14T22:11:16;0.7612992087902967;;;0.687;100.0
15558;BME280;7880;50.110;9.372;2023-02-14T22:16:19;0.7612992087902967;;;0.75;100.0
15558;BME280;7880;50.110;9.372;2023-02-14T22:21:24;0.5949219938600436;;;0.625;100.0
15558;BME280;7880;50.110;9.372;2023-02-14T22:26:30;0.6856731627136469;;;0.75;100.0
15558;BME280;7880;50.110;9.372;2023-02-14T22:31:36;0.7159235732862725;;;0.75;100.0
15558;BME280;7880;50.110;9.372;2023-02-14T22:36:46;0.7159235732862725;;;0.812;100.0
15558;BME280;7880;50.110;9.372;2023-02-14T22:41:43;0.7159235732862725;;;0.75;100.0
15558;BME280;7880;50.110;9.372;2023-02-14T22:46:48;0.5445047185756267;;;0.562;100.0
15558;BME280;7880;50.110;9.372;2023-02-14T22:51:53;0.5243378166109324;;;0.562;100.0
15558;BME280;7880;50.110;9.372;2023-02-14T22:56:59;0.4638371386565268;;;0.562;100.0
15558;BME280;7880;50.110;9.372;2023-02-14T23:02:02;0.6402975664997939;;;0.625;100.0
15558;BME280;7880;50.110;9.372;2023-02-14T23:07:09;0.6554227626184002;;;0.687;100.0
15558;BME280;7880;50.110;9.372;2023-02-14T23:25:40;0.6705479613563512;;;0.625;100.0
15558;BME280;7880;50.110;9.372;2023-02-14T23:30:44;0.6604644952400122;;;0.625;100.0
15558;BME280;7880;50.110;9.372;2023-02-14T23:35:49;0.7007983666902874;;;0.687;100.0
15558;BME280;7880;50.110;9.372;2023-02-14T23:42:02;0.6050054524093866;;;0.687;100.0
15558;BME280;7880;50.110;9.372;2023-02-14T23:46:47;0.6201306424161885;;;0.562;100.0
15558;BME280;7880;50.110;9.372;2023-02-14T23:51:50;0.6201306424161885;;;0.625;100.0
15558;BME280;7880;50.110;9.372;2023-02-14T23:56:58;0.5394629926478955;;;0.562;100.0
